| time (UTC) | temp C | wind direction | speed KPH | gust KPH | rain 1hr cm | rain 24hr cm | rain mn cm | humidity % | barometer mb |
| 20260509090550 | 20 | 109 | 4.8 | 14.5 | 0.00 | 0.00 | 0.00 | 86 | 1005.7 |
| 20260509090047 | 20 | 136 | 4.8 | 14.5 | 0.00 | 0.00 | 0.00 | 86 | 1005.7 |
| 20260509085543 | 20 | 128 | 3.2 | 14.5 | 0.00 | 0.00 | 0.00 | 85 | 1006.0 |
| 20260509085241 | 20 | 192 | 3.2 | 14.5 | 0.00 | 0.00 | 0.00 | 85 | 1006.2 |
| 20260509084710 | 20 | 137 | 6.4 | 17.7 | 0.00 | 0.00 | 0.00 | 85 | 1006.3 |
| 20260509083926 | 20 | 153 | 6.4 | 17.7 | 0.00 | 0.00 | 0.00 | 85 | 1006.3 |
| 20260509083650 | 20 | 149 | 4.8 | 11.3 | 0.00 | 0.00 | 0.00 | 85 | 1006.6 |
| 20260509082920 | 20 | 96 | 3.2 | 9.7 | 0.00 | 0.00 | 0.00 | 84 | 1007.0 |
| 20260509082846 | 20 | 261 | 3.2 | 9.7 | 0.00 | 0.00 | 0.00 | 84 | 1007.4 |
| 20260509081829 | 20 | 156 | 3.2 | 8.0 | 0.00 | 0.00 | 0.00 | 84 | 1007.8 |
| 20260509081324 | 21 | 146 | 3.2 | 8.0 | 0.00 | 0.00 | 0.00 | 84 | 1007.7 |
| 20260509081234 | 21 | 99 | 3.2 | 8.0 | 0.00 | 0.00 | 0.00 | 84 | 1008.0 |
| 20260509080515 | 21 | 128 | 1.6 | 8.0 | 0.00 | 0.00 | 0.00 | 84 | 1008.0 |
| 20260509075729 | 20 | 140 | 0.0 | 6.4 | 0.00 | 0.00 | 0.00 | 84 | 1008.4 |
| 20260509075227 | 20 | 134 | 0.0 | 3.2 | 0.00 | 0.00 | 0.00 | 84 | 1008.4 |
| 20260509074724 | 20 | 129 | 0.0 | 1.6 | 0.00 | 0.00 | 0.00 | 85 | 1008.5 |
| 20260509074225 | 20 | 124 | 0.0 | 1.6 | 0.00 | 0.00 | 0.00 | 85 | 1008.7 |
| 20260509073659 | 20 | 123 | 0.0 | 1.6 | 0.00 | 0.00 | 0.00 | 84 | 1008.9 |
| 20260509073139 | 20 | 205 | 0.0 | 0.0 | 0.00 | 0.00 | 0.00 | 84 | 1009.1 |
| 20260509072637 | 20 | 205 | 0.0 | 0.0 | 0.00 | 0.00 | 0.00 | 84 | 1009.1 |
| 20260509072127 | 20 | 205 | 0.0 | 0.0 | 0.00 | 0.00 | 0.00 | 84 | 1009.2 |
| 20260509071605 | 20 | 205 | 0.0 | 0.0 | 0.00 | 0.00 | 0.00 | 83 | 1009.3 |
| 20260509071324 | 20 | 205 | 0.0 | 0.0 | 0.00 | 0.00 | 0.00 | 83 | 1009.3 |
| 20260509070605 | 20 | 205 | 0.0 | 1.6 | 0.00 | 0.00 | 0.00 | 83 | 1009.2 |
| 20260509070049 | 20 | 205 | 0.0 | 1.6 | 0.00 | 0.00 | 0.00 | 83 | 1008.9 |
| 20260509065527 | 20 | 205 | 0.0 | 4.8 | 0.00 | 0.00 | 0.00 | 83 | 1008.7 |
| 20260509065025 | 20 | 252 | 0.0 | 4.8 | 0.00 | 0.00 | 0.00 | 83 | 1008.4 |
| 20260509064746 | 21 | 165 | 1.6 | 8.0 | 0.00 | 0.00 | 0.00 | 82 | 1008.2 |
| 20260509064006 | 21 | 234 | 1.6 | 8.0 | 0.00 | 0.00 | 0.00 | 83 | 1008.4 |
| 20260509063442 | 21 | 233 | 1.6 | 6.4 | 0.00 | 0.00 | 0.00 | 83 | 1008.6 |
| 20260509062927 | 20 | 259 | 1.6 | 4.8 | 0.00 | 0.00 | 0.00 | 83 | 1008.6 |
| 20260509062424 | 20 | 236 | 1.6 | 4.8 | 0.00 | 0.00 | 0.00 | 83 | 1008.6 |
| 20260509061858 | 20 | 153 | 0.0 | 3.2 | 0.00 | 0.00 | 0.00 | 83 | 1008.5 |
| 20260509061342 | 20 | 127 | 0.0 | 0.0 | 0.00 | 0.00 | 0.00 | 82 | 1008.7 |
| 20260509060816 | 20 | 131 | 0.0 | 0.0 | 0.00 | 0.00 | 0.00 | 82 | 1009.1 |
| 20260509060520 | 20 | 131 | 0.0 | 3.2 | 0.00 | 0.00 | 0.00 | 81 | 1009.0 |
| 20260509055734 | 21 | 131 | 0.0 | 3.2 | 0.00 | 0.00 | 0.00 | 81 | 1009.0 |
| 20260509055501 | 21 | 343 | 0.0 | 3.2 | 0.00 | 0.00 | 0.00 | 81 | 1009.5 |
| 20260509054710 | 21 | 221 | 1.6 | 6.4 | 0.00 | 0.00 | 0.00 | 81 | 1009.4 |
| 20260509054153 | 21 | 231 | 1.6 | 6.4 | 0.00 | 0.00 | 0.00 | 81 | 1008.9 |
| 20260509053630 | 21 | 190 | 0.0 | 0.0 | 0.00 | 0.00 | 0.00 | 80 | 1009.4 |
| 20260509053106 | 21 | 326 | 0.0 | 4.8 | 0.00 | 0.00 | 0.00 | 80 | 1009.9 |
| 20260509052827 | 21 | 326 | 1.6 | 4.8 | 0.00 | 0.00 | 0.00 | 79 | 1010.1 |
| 20260509052105 | 21 | 25 | 1.6 | 4.8 | 0.00 | 0.00 | 0.00 | 79 | 1009.9 |
| 20260509051603 | 21 | 27 | 1.6 | 6.4 | 0.00 | 0.00 | 0.00 | 79 | 1009.6 |
| 20260509051102 | 21 | 273 | 3.2 | 8.0 | 0.00 | 0.00 | 0.00 | 79 | 1008.9 |
| 20260509050543 | 21 | 172 | 1.6 | 8.0 | 0.00 | 0.00 | 0.00 | 78 | 1008.6 |
| 20260509050039 | 21 | 235 | 1.6 | 6.4 | 0.00 | 0.00 | 0.00 | 78 | 1008.7 |
| 20260509045538 | 21 | 255 | 1.6 | 6.4 | 0.00 | 0.00 | 0.00 | 78 | 1008.8 |
| 20260509045005 | 21 | 250 | 4.8 | 12.9 | 0.00 | 0.00 | 0.00 | 78 | 1008.3 |
| 20260509044436 | 21 | 152 | 3.2 | 12.9 | 0.00 | 0.00 | 0.00 | 77 | 1008.1 |
| 20260509043935 | 21 | 226 | 1.6 | 6.4 | 0.00 | 0.00 | 0.00 | 78 | 1008.3 |
| 20260509043425 | 21 | 134 | 3.2 | 8.0 | 0.00 | 0.00 | 0.00 | 78 | 1008.3 |
| 20260509042922 | 21 | 112 | 3.2 | 9.7 | 0.00 | 0.00 | 0.00 | 78 | 1008.2 |
| 20260509042355 | 21 | 108 | 3.2 | 9.7 | 0.00 | 0.00 | 0.00 | 78 | 1008.1 |
| 20260509041853 | 21 | 120 | 1.6 | 6.4 | 0.00 | 0.00 | 0.00 | 77 | 1008.4 |
| 20260509041355 | 21 | 139 | 0.0 | 3.2 | 0.00 | 0.00 | 0.00 | 77 | 1008.9 |
| 20260509040838 | 22 | 112 | 0.0 | 0.0 | 0.00 | 0.00 | 0.00 | 77 | 1009.2 |
| 20260509040340 | 22 | 112 | 0.0 | 0.0 | 0.00 | 0.00 | 0.00 | 76 | 1009.4 |
| 20260509040056 | 22 | 112 | 0.0 | 0.0 | 0.00 | 0.00 | 0.00 | 76 | 1009.4 |
| 20260509035335 | 22 | 112 | 0.0 | 0.0 | 0.00 | 0.00 | 0.00 | 76 | 1009.4 |
| 20260509035028 | 22 | 112 | 0.0 | 0.0 | 0.00 | 0.00 | 0.00 | 76 | 1009.3 |
| 20260509034303 | 21 | 112 | 0.0 | 0.0 | 0.00 | 0.00 | 0.00 | 76 | 1009.2 |
| 20260509033800 | 21 | 112 | 0.0 | 0.0 | 0.00 | 0.00 | 0.00 | 76 | 1009.0 |
| 20260509033258 | 21 | 112 | 0.0 | 0.0 | 0.00 | 0.00 | 0.00 | 75 | 1008.9 |
| 20260509032949 | 22 | 112 | 0.0 | 1.6 | 0.00 | 0.00 | 0.00 | 75 | 1008.6 |
| 20260509032230 | 21 | 112 | 0.0 | 3.2 | 0.00 | 0.00 | 0.00 | 75 | 1008.5 |
| 20260509031716 | 21 | 257 | 0.0 | 3.2 | 0.00 | 0.00 | 0.00 | 75 | 1008.5 |
| 20260509031434 | 21 | 129 | 0.0 | 1.6 | 0.00 | 0.00 | 0.00 | 75 | 1008.6 |
| 20260509030902 | 21 | 129 | 0.0 | 1.6 | 0.00 | 0.00 | 0.00 | 75 | 1008.7 |
| 20260509030116 | 21 | 129 | 0.0 | 3.2 | 0.00 | 0.00 | 0.00 | 75 | 1008.6 |
| 20260509025610 | 21 | 145 | 0.0 | 3.2 | 0.00 | 0.00 | 0.00 | 74 | 1008.5 |
| 20260509025329 | 21 | 145 | 0.0 | 3.2 | 0.00 | 0.00 | 0.00 | 74 | 1008.3 |
| 20260509024604 | 22 | 187 | 1.6 | 4.8 | 0.00 | 0.00 | 0.00 | 74 | 1008.1 |
| 20260509024104 | 22 | 226 | 1.6 | 4.8 | 0.00 | 0.00 | 0.00 | 74 | 1007.9 |
| 20260509023550 | 22 | 161 | 1.6 | 8.0 | 0.00 | 0.00 | 0.00 | 74 | 1007.9 |
| 20260509023052 | 22 | 121 | 1.6 | 8.0 | 0.00 | 0.00 | 0.00 | 73 | 1008.0 |
| 20260509022528 | 22 | 302 | 1.6 | 6.4 | 0.00 | 0.00 | 0.00 | 73 | 1007.7 |
| 20260509022028 | 22 | 165 | 1.6 | 6.4 | 0.00 | 0.00 | 0.00 | 73 | 1007.6 |
| 20260509021455 | 22 | 129 | 1.6 | 8.0 | 0.00 | 0.00 | 0.00 | 73 | 1007.6 |
| 20260509020952 | 22 | 120 | 1.6 | 8.0 | 0.00 | 0.00 | 0.00 | 72 | 1007.7 |
| 20260509020449 | 22 | 159 | 1.6 | 6.4 | 0.00 | 0.00 | 0.00 | 72 | 1007.8 |
| 20260509020158 | 22 | 113 | 1.6 | 9.7 | 0.00 | 0.00 | 0.00 | 72 | 1007.8 |
| 20260509015709 | 22 | 165 | 3.2 | 9.7 | 0.00 | 0.00 | 0.00 | 72 | 1007.7 |
| 20260509014936 | 22 | 233 | 3.2 | 12.9 | 0.00 | 0.00 | 0.00 | 72 | 1007.6 |
| 20260509014436 | 22 | 232 | 3.2 | 9.7 | 0.00 | 0.00 | 0.00 | 72 | 1007.6 |
| 20260509013906 | 22 | 217 | 4.8 | 9.7 | 0.00 | 0.00 | 0.00 | 72 | 1007.6 |
| 20260509013402 | 22 | 239 | 3.2 | 9.7 | 0.00 | 0.00 | 0.00 | 72 | 1007.5 |
| 20260509012838 | 22 | 252 | 1.6 | 6.4 | 0.00 | 0.00 | 0.00 | 72 | 1007.4 |
| 20260509012330 | 22 | 213 | 0.0 | 3.2 | 0.00 | 0.00 | 0.00 | 73 | 1007.4 |
| 20260509011830 | 22 | 141 | 0.0 | 3.2 | 0.00 | 0.00 | 0.00 | 72 | 1007.3 |
| 20260509011300 | 22 | 144 | 0.0 | 3.2 | 0.00 | 0.00 | 0.00 | 72 | 1007.2 |
| 20260509010759 | 22 | 107 | 1.6 | 4.8 | 0.00 | 0.00 | 0.00 | 72 | 1007.2 |
| 20260509010515 | 22 | 264 | 1.6 | 4.8 | 0.00 | 0.00 | 0.00 | 72 | 1007.1 |
| 20260509005754 | 22 | 214 | 1.6 | 6.4 | 0.00 | 0.00 | 0.00 | 71 | 1007.0 |
| 20260509005224 | 22 | 155 | 3.2 | 6.4 | 0.00 | 0.00 | 0.00 | 71 | 1007.0 |
| 20260509004945 | 22 | 257 | 3.2 | 9.7 | 0.00 | 0.00 | 0.00 | 71 | 1007.0 |
| 20260509004213 | 22 | 170 | 3.2 | 9.7 | 0.00 | 0.00 | 0.00 | 71 | 1006.9 |
| 20260509003713 | 22 | 127 | 4.8 | 11.3 | 0.00 | 0.00 | 0.00 | 70 | 1006.8 |
| 20260509003148 | 22 | 128 | 4.8 | 11.3 | 0.00 | 0.00 | 0.00 | 70 | 1006.7 |
| 20260509002845 | 22 | 195 | 3.2 | 11.3 | 0.00 | 0.00 | 0.00 | 70 | 1006.8 |
| 20260509002052 | 22 | 153 | 4.8 | 17.7 | 0.00 | 0.00 | 0.00 | 69 | 1006.9 |
| 20260509001551 | 22 | 223 | 4.8 | 17.7 | 0.00 | 0.00 | 0.00 | 69 | 1006.9 |
| 20260509001244 | 22 | 203 | 3.2 | 9.7 | 0.00 | 0.00 | 0.00 | 69 | 1007.0 |
| 20260509000454 | 22 | 159 | 3.2 | 11.3 | 0.00 | 0.00 | 0.00 | 68 | 1007.1 |
| 20260508235951 | 22 | 127 | 3.2 | 11.3 | 0.00 | 0.00 | 0.00 | 67 | 1007.2 |
| 20260508235424 | 22 | 110 | 3.2 | 9.7 | 0.00 | 0.00 | 0.00 | 67 | 1007.2 |
| 20260508234922 | 22 | 143 | 3.2 | 8.0 | 0.00 | 0.00 | 0.00 | 66 | 1007.2 |
| 20260508234354 | 23 | 185 | 1.6 | 8.0 | 0.00 | 0.00 | 0.00 | 65 | 1007.3 |
| 20260508233852 | 23 | 113 | 3.2 | 11.3 | 0.00 | 0.00 | 0.00 | 65 | 1007.3 |
| 20260508233350 | 23 | 146 | 4.8 | 12.9 | 0.00 | 0.00 | 0.00 | 64 | 1007.3 |
| 20260508232827 | 23 | 80 | 3.2 | 12.9 | 0.00 | 0.00 | 0.00 | 64 | 1007.3 |
| 20260508232314 | 23 | 110 | 3.2 | 12.9 | 0.00 | 0.00 | 0.00 | 64 | 1007.4 |
| 20260508231814 | 23 | 164 | 3.2 | 9.7 | 0.00 | 0.00 | 0.00 | 63 | 1007.4 |
| 20260508231507 | 23 | 181 | 4.8 | 12.9 | 0.00 | 0.00 | 0.00 | 65 | 1007.4 |
| 20260508230746 | 23 | 226 | 6.4 | 12.9 | 0.00 | 0.00 | 0.00 | 64 | 1007.4 |
| 20260508230242 | 23 | 149 | 6.4 | 14.5 | 0.00 | 0.00 | 0.00 | 64 | 1007.4 |
| 20260508225721 | 23 | 240 | 6.4 | 14.5 | 0.00 | 0.00 | 0.00 | 65 | 1007.5 |
| 20260508225224 | 23 | 229 | 6.4 | 14.5 | 0.00 | 0.00 | 0.00 | 64 | 1007.5 |
| 20260508224658 | 23 | 193 | 8.0 | 16.1 | 0.00 | 0.00 | 0.00 | 63 | 1007.5 |
| 20260508224135 | 23 | 210 | 8.0 | 19.3 | 0.00 | 0.00 | 0.00 | 63 | 1007.4 |
| 20260508223609 | 23 | 211 | 8.0 | 19.3 | 0.00 | 0.00 | 0.00 | 62 | 1007.3 |
| 20260508223339 | 24 | 227 | 8.0 | 14.5 | 0.00 | 0.00 | 0.00 | 63 | 1007.3 |
| 20260508222838 | 24 | 234 | 6.4 | 20.9 | 0.00 | 0.00 | 0.00 | 62 | 1007.3 |
| 20260508222053 | 25 | 233 | 6.4 | 16.1 | 0.00 | 0.00 | 0.00 | 64 | 1007.3 |
| 20260508221552 | 24 | 143 | 8.0 | 16.1 | 0.00 | 0.00 | 0.00 | 63 | 1007.2 |
| 20260508221317 | 24 | 238 | 8.0 | 16.1 | 0.00 | 0.00 | 0.00 | 63 | 1007.3 |
| 20260508220536 | 24 | 155 | 6.4 | 16.1 | 0.00 | 0.00 | 0.00 | 64 | 1007.2 |
| 20260508220035 | 24 | 203 | 6.4 | 12.9 | 0.00 | 0.00 | 0.00 | 64 | 1007.2 |
| 20260508215521 | 24 | 212 | 6.4 | 12.9 | 0.00 | 0.00 | 0.00 | 65 | 1007.2 |
| 20260508215023 | 24 | 217 | 6.4 | 11.3 | 0.00 | 0.00 | 0.00 | 65 | 1007.2 |
| 20260508214459 | 24 | 226 | 6.4 | 14.5 | 0.00 | 0.00 | 0.00 | 64 | 1007.1 |
| 20260508213935 | 24 | 153 | 6.4 | 14.5 | 0.00 | 0.00 | 0.00 | 65 | 1007.1 |
| 20260508213411 | 24 | 128 | 4.8 | 12.9 | 0.00 | 0.00 | 0.00 | 64 | 1007.0 |
| 20260508213334 | 24 | 207 | 4.8 | 12.9 | 0.00 | 0.00 | 0.00 | 65 | 1007.0 |
| 20260508212350 | 23 | 179 | 4.8 | 12.9 | 0.00 | 0.00 | 0.00 | 69 | 1007.1 |
| 20260508212116 | 22 | 106 | 4.8 | 11.3 | 0.00 | 0.00 | 0.00 | 71 | 1007.5 |
| 20260508211328 | 22 | 124 | 3.2 | 9.7 | 0.00 | 0.00 | 0.00 | 68 | 1008.0 |
| 20260508210800 | 22 | 133 | 3.2 | 8.0 | 0.00 | 0.00 | 0.00 | 68 | 1008.1 |
| 20260508210303 | 22 | 220 | 3.2 | 11.3 | 0.00 | 0.00 | 0.00 | 68 | 1008.3 |
| 20260508205750 | 22 | 183 | 3.2 | 11.3 | 0.00 | 0.00 | 0.00 | 68 | 1008.6 |
| 20260508205509 | 22 | 122 | 4.8 | 11.3 | 0.00 | 0.00 | 0.00 | 68 | 1008.7 |
| 20260508205012 | 23 | 220 | 4.8 | 11.3 | 0.00 | 0.00 | 0.00 | 65 | 1008.9 |
| 20260508204227 | 23 | 192 | 4.8 | 11.3 | 0.00 | 0.00 | 0.00 | 64 | 1009.1 |
| 20260508203703 | 23 | 153 | 4.8 | 11.3 | 0.00 | 0.00 | 0.00 | 63 | 1009.2 |
| 20260508203143 | 23 | 149 | 3.2 | 11.3 | 0.00 | 0.00 | 0.00 | 63 | 1009.2 |
| 20260508202616 | 23 | 214 | 3.2 | 11.3 | 0.00 | 0.00 | 0.00 | 63 | 1009.3 |
| 20260508202117 | 23 | 231 | 3.2 | 11.3 | 0.00 | 0.00 | 0.00 | 62 | 1009.2 |
| 20260508201548 | 23 | 225 | 3.2 | 11.3 | 0.00 | 0.00 | 0.00 | 61 | 1009.2 |
| 20260508201048 | 23 | 225 | 4.8 | 12.9 | 0.00 | 0.00 | 0.00 | 62 | 1009.2 |
| 20260508200547 | 23 | 214 | 6.4 | 12.9 | 0.00 | 0.00 | 0.00 | 61 | 1009.2 |
| 20260508200044 | 24 | 183 | 4.8 | 14.5 | 0.00 | 0.00 | 0.00 | 60 | 1009.1 |
| 20260508195520 | 24 | 194 | 6.4 | 14.5 | 0.00 | 0.00 | 0.00 | 59 | 1009.2 |
| 20260508195235 | 24 | 224 | 4.8 | 14.5 | 0.00 | 0.00 | 0.00 | 58 | 1009.2 |
| 20260508194455 | 25 | 143 | 4.8 | 14.5 | 0.00 | 0.00 | 0.00 | 59 | 1009.3 |
| 20260508193950 | 25 | 237 | 8.0 | 19.3 | 0.00 | 0.00 | 0.00 | 60 | 1009.3 |
| 20260508193446 | 25 | 139 | 8.0 | 19.3 | 0.00 | 0.00 | 0.00 | 58 | 1009.3 |
| 20260508192943 | 25 | 134 | 8.0 | 20.9 | 0.00 | 0.00 | 0.00 | 59 | 1009.3 |
| 20260508192923 | 25 | 154 | 8.0 | 20.9 | 0.00 | 0.00 | 0.00 | 58 | 1009.3 |
| 20260508191916 | 25 | 235 | 8.0 | 16.1 | 0.00 | 0.00 | 0.00 | 59 | 1009.3 |
| 20260508191347 | 25 | 196 | 8.0 | 17.7 | 0.00 | 0.00 | 0.00 | 58 | 1009.4 |
| 20260508190849 | 25 | 157 | 6.4 | 17.7 | 0.00 | 0.00 | 0.00 | 57 | 1009.5 |
| 20260508190322 | 25 | 129 | 4.8 | 14.5 | 0.00 | 0.00 | 0.00 | 57 | 1009.5 |
| 20260508190015 | 25 | 108 | 4.8 | 14.5 | 0.00 | 0.00 | 0.00 | 60 | 1009.6 |
| 20260508185249 | 25 | 129 | 6.4 | 14.5 | 0.00 | 0.00 | 0.00 | 59 | 1009.6 |
| 20260508184747 | 25 | 117 | 6.4 | 16.1 | 0.00 | 0.00 | 0.00 | 58 | 1009.7 |
| 20260508184245 | 25 | 98 | 6.4 | 16.1 | 0.00 | 0.00 | 0.00 | 57 | 1009.8 |
| 20260508183742 | 25 | 169 | 6.4 | 14.5 | 0.00 | 0.00 | 0.00 | 60 | 1009.6 |
| 20260508183238 | 25 | 150 | 4.8 | 14.5 | 0.00 | 0.00 | 0.00 | 56 | 1009.9 |
| 20260508182736 | 25 | 90 | 4.8 | 11.3 | 0.00 | 0.00 | 0.00 | 57 | 1010.0 |
| 20260508182233 | 25 | 124 | 3.2 | 12.9 | 0.00 | 0.00 | 0.00 | 56 | 1010.1 |
| 20260508181731 | 25 | 162 | 3.2 | 11.3 | 0.00 | 0.00 | 0.00 | 60 | 1010.1 |
| 20260508181229 | 25 | 122 | 4.8 | 9.7 | 0.00 | 0.00 | 0.00 | 60 | 1010.2 |
| 20260508180706 | 25 | 152 | 3.2 | 12.9 | 0.00 | 0.00 | 0.00 | 56 | 1010.3 |
| 20260508180137 | 24 | 90 | 4.8 | 14.5 | 0.00 | 0.00 | 0.00 | 59 | 1010.4 |
| 20260508175611 | 24 | 223 | 6.4 | 14.5 | 0.00 | 0.00 | 0.00 | 57 | 1010.5 |
| 20260508175047 | 24 | 153 | 6.4 | 17.7 | 0.00 | 0.00 | 0.00 | 59 | 1010.7 |
| 20260508174519 | 24 | 119 | 4.8 | 17.7 | 0.00 | 0.00 | 0.00 | 57 | 1010.7 |
| 20260508173951 | 24 | 257 | 6.4 | 14.5 | 0.00 | 0.00 | 0.00 | 61 | 1010.7 |
| 20260508173447 | 23 | 123 | 4.8 | 14.5 | 0.00 | 0.00 | 0.00 | 57 | 1010.8 |
| 20260508172918 | 23 | 214 | 3.2 | 14.5 | 0.00 | 0.00 | 0.00 | 60 | 1010.8 |
| 20260508172419 | 23 | 150 | 3.2 | 12.9 | 0.00 | 0.00 | 0.00 | 62 | 1010.9 |
| 20260508171919 | 23 | 159 | 4.8 | 12.9 | 0.00 | 0.00 | 0.00 | 59 | 1011.0 |
| 20260508171354 | 22 | 191 | 4.8 | 12.9 | 0.00 | 0.00 | 0.00 | 61 | 1011.2 |
| 20260508170825 | 22 | 120 | 4.8 | 11.3 | 0.00 | 0.00 | 0.00 | 62 | 1011.4 |
| 20260508170321 | 22 | 116 | 4.8 | 11.3 | 0.00 | 0.00 | 0.00 | 61 | 1011.6 |
| 20260508170019 | 22 | 124 | 4.8 | 11.3 | 0.00 | 0.00 | 0.00 | 62 | 1011.7 |
| 20260508165257 | 22 | 104 | 4.8 | 11.3 | 0.00 | 0.00 | 0.00 | 61 | 1012.0 |
| 20260508164952 | 22 | 143 | 4.8 | 12.9 | 0.00 | 0.00 | 0.00 | 62 | 1012.1 |
| 20260508164446 | 22 | 114 | 3.2 | 12.9 | 0.00 | 0.00 | 0.00 | 62 | 1012.1 |
| 20260508163657 | 22 | 113 | 3.2 | 12.9 | 0.00 | 0.00 | 0.00 | 64 | 1012.3 |
| 20260508163156 | 21 | 131 | 4.8 | 12.9 | 0.00 | 0.00 | 0.00 | 63 | 1012.4 |
| 20260508162627 | 21 | 205 | 4.8 | 12.9 | 0.00 | 0.00 | 0.00 | 62 | 1012.5 |
| 20260508162126 | 21 | 216 | 4.8 | 12.9 | 0.00 | 0.00 | 0.00 | 61 | 1012.5 |
| 20260508161558 | 21 | 121 | 6.4 | 14.5 | 0.00 | 0.00 | 0.00 | 62 | 1012.5 |
| 20260508161056 | 21 | 221 | 4.8 | 14.5 | 0.00 | 0.00 | 0.00 | 61 | 1012.6 |
| 20260508160527 | 21 | 108 | 4.8 | 14.5 | 0.00 | 0.00 | 0.00 | 62 | 1012.6 |
| 20260508160026 | 21 | 97 | 4.8 | 14.5 | 0.00 | 0.00 | 0.00 | 61 | 1012.7 |
| 20260508155521 | 21 | 229 | 6.4 | 14.5 | 0.00 | 0.00 | 0.00 | 62 | 1012.8 |
| 20260508155021 | 21 | 252 | 6.4 | 14.5 | 0.00 | 0.00 | 0.00 | 63 | 1012.8 |
| 20260508154453 | 21 | 160 | 4.8 | 12.9 | 0.00 | 0.00 | 0.00 | 62 | 1012.8 |
| 20260508153948 | 20 | 129 | 3.2 | 12.9 | 0.00 | 0.00 | 0.00 | 63 | 1013.0 |
| 20260508153447 | 20 | 150 | 3.2 | 8.0 | 0.00 | 0.00 | 0.00 | 67 | 1012.9 |
| 20260508152919 | 20 | 124 | 3.2 | 8.0 | 0.00 | 0.00 | 0.00 | 66 | 1012.9 |
| 20260508152900 | 20 | 172 | 3.2 | 8.0 | 0.00 | 0.00 | 0.00 | 65 | 1013.1 |
| 20260508151849 | 20 | 126 | 4.8 | 11.3 | 0.00 | 0.00 | 0.00 | 65 | 1013.2 |
| 20260508151613 | 20 | 210 | 3.2 | 11.3 | 0.00 | 0.00 | 0.00 | 65 | 1013.1 |
| 20260508151102 | 20 | 158 | 4.8 | 11.3 | 0.00 | 0.00 | 0.00 | 66 | 1013.1 |
| 20260508150341 | 20 | 240 | 4.8 | 11.3 | 0.00 | 0.00 | 0.00 | 64 | 1013.0 |
| 20260508145813 | 20 | 162 | 3.2 | 9.7 | 0.00 | 0.00 | 0.00 | 64 | 1013.0 |
| 20260508145312 | 20 | 154 | 3.2 | 8.0 | 0.00 | 0.00 | 0.00 | 64 | 1012.9 |
| 20260508144746 | 20 | 176 | 4.8 | 8.0 | 0.00 | 0.00 | 0.00 | 65 | 1012.9 |
| 20260508144217 | 19 | 158 | 4.8 | 12.9 | 0.00 | 0.00 | 0.00 | 66 | 1012.9 |
| 20260508143715 | 19 | 161 | 4.8 | 12.9 | 0.00 | 0.00 | 0.00 | 65 | 1013.1 |
| 20260508143148 | 19 | 176 | 4.8 | 14.5 | 0.00 | 0.00 | 0.00 | 66 | 1013.1 |
| 20260508142906 | 19 | 113 | 4.8 | 14.5 | 0.00 | 0.00 | 0.00 | 65 | 1013.1 |
| 20260508142118 | 19 | 227 | 6.4 | 12.9 | 0.00 | 0.00 | 0.00 | 66 | 1013.2 |
| 20260508141844 | 19 | 153 | 6.4 | 14.5 | 0.00 | 0.00 | 0.00 | 66 | 1013.3 |
| 20260508141049 | 19 | 177 | 4.8 | 14.5 | 0.00 | 0.00 | 0.00 | 66 | 1013.4 |
| 20260508140548 | 19 | 172 | 3.2 | 11.3 | 0.00 | 0.00 | 0.00 | 68 | 1013.3 |
| 20260508140019 | 19 | 146 | 4.8 | 11.3 | 0.00 | 0.00 | 0.00 | 70 | 1013.3 |
| 20260508135518 | 18 | 124 | 4.8 | 11.3 | 0.00 | 0.00 | 0.00 | 68 | 1013.3 |
| 20260508135208 | 18 | 176 | 3.2 | 11.3 | 0.00 | 0.00 | 0.00 | 69 | 1013.3 |
| 20260508134449 | 18 | 132 | 1.6 | 8.0 | 0.00 | 0.00 | 0.00 | 72 | 1013.3 |
| 20260508134155 | 18 | 120 | 1.6 | 8.0 | 0.00 | 0.00 | 0.00 | 72 | 1013.1 |
| 20260508133425 | 17 | 134 | 1.6 | 6.4 | 0.00 | 0.00 | 0.00 | 77 | 1013.1 |
| 20260508132924 | 17 | 157 | 1.6 | 4.8 | 0.00 | 0.00 | 0.00 | 77 | 1013.2 |
| 20260508132356 | 17 | 153 | 1.6 | 4.8 | 0.00 | 0.00 | 0.00 | 77 | 1013.4 |
| 20260508131853 | 17 | 146 | 1.6 | 6.4 | 0.00 | 0.00 | 0.00 | 78 | 1013.5 |
| 20260508131614 | 16 | 133 | 1.6 | 6.4 | 0.00 | 0.00 | 0.00 | 79 | 1013.5 |
| 20260508130826 | 16 | 126 | 0.0 | 4.8 | 0.00 | 0.00 | 0.00 | 83 | 1013.3 |
| 20260508130258 | 16 | 136 | 0.0 | 3.2 | 0.00 | 0.00 | 0.00 | 84 | 1013.4 |
| 20260508125230 | 16 | 146 | 0.0 | 0.0 | 0.00 | 0.00 | 0.00 | 86 | 1013.4 |
| 20260508124701 | 16 | 145 | 0.0 | 0.0 | 0.00 | 0.00 | 0.00 | 86 | 1013.5 |
| 20260508124201 | 16 | 146 | 0.0 | 0.0 | 0.00 | 0.00 | 0.00 | 86 | 1013.6 |
| 20260508123631 | 16 | 145 | 0.0 | 0.0 | 0.00 | 0.00 | 0.00 | 86 | 1013.7 |
| 20260508123359 | 15 | 145 | 0.0 | 0.0 | 0.00 | 0.00 | 0.00 | 86 | 1013.7 |
| 20260508122604 | 15 | 146 | 0.0 | 0.0 | 0.00 | 0.00 | 0.00 | 86 | 1013.6 |
| 20260508122100 | 15 | 146 | 0.0 | 0.0 | 0.00 | 0.00 | 0.00 | 86 | 1013.5 |
| 20260508121533 | 15 | 145 | 0.0 | 0.0 | 0.00 | 0.00 | 0.00 | 86 | 1013.5 |
| 20260508121028 | 15 | 145 | 0.0 | 0.0 | 0.00 | 0.00 | 0.00 | 86 | 1013.5 |
| 20260508120526 | 15 | 145 | 0.0 | 0.0 | 0.00 | 0.00 | 0.00 | 86 | 1013.5 |
| 20260508115957 | 15 | 145 | 0.0 | 0.0 | 0.00 | 0.00 | 0.00 | 86 | 1013.6 |
| 20260508115456 | 15 | 146 | 0.0 | 0.0 | 0.00 | 0.00 | 0.00 | 86 | 1013.4 |
| 20260508115148 | 15 | 146 | 0.0 | 0.0 | 0.00 | 0.00 | 0.00 | 86 | 1013.6 |
| 20260508114423 | 15 | 146 | 0.0 | 3.2 | 0.00 | 0.00 | 0.00 | 86 | 1013.6 |
| 20260508113902 | 15 | 146 | 0.0 | 4.8 | 0.00 | 0.00 | 0.00 | 86 | 1013.4 |
| 20260508113333 | 15 | 117 | 0.0 | 4.8 | 0.00 | 0.00 | 0.00 | 86 | 1013.5 |
| 20260508112831 | 15 | 129 | 1.6 | 4.8 | 0.00 | 0.00 | 0.00 | 86 | 1013.6 |
| 20260508112527 | 15 | 120 | 1.6 | 4.8 | 0.00 | 0.00 | 0.00 | 86 | 1013.6 |
| 20260508111804 | 15 | 133 | 0.0 | 1.6 | 0.00 | 0.00 | 0.00 | 86 | 1013.8 |
| 20260508111307 | 15 | 339 | 0.0 | 0.0 | 0.00 | 0.00 | 0.00 | 85 | 1013.9 |
| 20260508110746 | 15 | 339 | 0.0 | 3.2 | 0.00 | 0.00 | 0.00 | 85 | 1014.1 |
| 20260508110726 | 15 | 339 | 1.6 | 6.4 | 0.00 | 0.00 | 0.00 | 85 | 1014.3 |
| 20260508105739 | 15 | 334 | 1.6 | 6.4 | 0.00 | 0.00 | 0.00 | 84 | 1014.2 |
| 20260508105219 | 15 | 319 | 0.0 | 0.0 | 0.00 | 0.00 | 0.00 | 84 | 1013.9 |
| 20260508104659 | 15 | 262 | 0.0 | 1.6 | 0.00 | 0.00 | 0.00 | 84 | 1013.5 |
| 20260508104159 | 15 | 262 | 0.0 | 3.2 | 0.00 | 0.00 | 0.00 | 83 | 1013.1 |
| 20260508103654 | 15 | 153 | 0.0 | 3.2 | 0.00 | 0.00 | 0.00 | 83 | 1012.9 |
| 20260508103129 | 15 | 259 | 0.0 | 1.6 | 0.00 | 0.00 | 0.00 | 83 | 1012.7 |
| 20260508102631 | 15 | 259 | 0.0 | 1.6 | 0.00 | 0.00 | 0.00 | 84 | 1012.6 |
| 20260508102128 | 15 | 259 | 0.0 | 3.2 | 0.00 | 0.00 | 0.00 | 84 | 1012.6 |
| 20260508101629 | 15 | 259 | 0.0 | 3.2 | 0.00 | 0.00 | 0.00 | 85 | 1012.5 |
| 20260508101333 | 15 | 237 | 0.0 | 3.2 | 0.00 | 0.00 | 0.00 | 86 | 1012.5 |
| 20260508100605 | 15 | 231 | 0.0 | 0.0 | 0.00 | 0.00 | 0.00 | 86 | 1012.5 |
| 20260508100049 | 15 | 231 | 0.0 | 0.0 | 0.00 | 0.00 | 0.00 | 85 | 1012.6 |
| 20260508095541 | 15 | 231 | 0.0 | 0.0 | 0.00 | 0.00 | 0.00 | 85 | 1012.5 |
| 20260508095306 | 15 | 231 | 0.0 | 0.0 | 0.00 | 0.00 | 0.00 | 85 | 1012.6 |
| 20260508094549 | 15 | 231 | 0.0 | 0.0 | 0.00 | 0.00 | 0.00 | 85 | 1012.7 |
| 20260508094538 | 15 | 231 | 0.0 | 0.0 | 0.00 | 0.00 | 0.00 | 85 | 1012.7 |
| 20260508094226 | 15 | 231 | 0.0 | 0.0 | 0.00 | 0.00 | 0.00 | 85 | 1012.8 |
| 20260508092948 | 15 | 231 | 0.0 | 0.0 | 0.00 | 0.00 | 0.00 | 85 | 1012.8 |
| 20260508092449 | 15 | 231 | 0.0 | 0.0 | 0.00 | 0.00 | 0.00 | 85 | 1012.8 |
| 20260508091933 | 15 | 231 | 0.0 | 0.0 | 0.00 | 0.00 | 0.00 | 85 | 1012.7 |
| 20260508091435 | 16 | 231 | 0.0 | 0.0 | 0.00 | 0.00 | 0.00 | 85 | 1012.8 |
| 20260508090907 | 15 | 231 | 0.0 | 3.2 | 0.00 | 0.00 | 0.00 | 85 | 1012.8 |